createdAt,value
2023-06-03T00:03:38.340Z,8.10
2023-06-03T00:08:45.716Z,8.30
2023-06-03T00:19:31.212Z,8.50
2023-06-03T00:24:38.644Z,8.20
2023-06-03T00:29:46.222Z,8.40
2023-06-03T00:34:53.649Z,8.70
2023-06-03T00:40:01.782Z,10.50
2023-06-03T00:45:11.211Z,9.30
2023-06-03T00:50:18.978Z,10.00
2023-06-03T00:55:27.054Z,8.80
2023-06-03T01:00:34.614Z,10.10
2023-06-03T01:05:42.460Z,11.30
2023-06-03T01:10:57.048Z,8.80
2023-06-03T01:16:06.587Z,11.30
2023-06-03T01:21:16.635Z,9.40
2023-06-03T01:26:24.211Z,7.60
2023-06-03T01:31:31.468Z,8.30
2023-06-03T01:36:39.040Z,9.40
2023-06-03T01:41:47.971Z,8.40
2023-06-03T01:46:59.156Z,9.20
2023-06-03T01:52:07.731Z,7.90
2023-06-03T01:57:18.211Z,8.40
2023-06-03T02:02:26.209Z,8.40
2023-06-03T02:07:34.029Z,8.70
2023-06-03T02:12:41.296Z,9.10
2023-06-03T02:17:50.252Z,9.70
2023-06-03T02:22:58.631Z,8.20
2023-06-03T02:28:07.822Z,8.40
2023-06-03T02:33:15.174Z,9.70
2023-06-03T02:38:22.696Z,9.50
2023-06-03T02:43:29.880Z,6.80
2023-06-03T02:48:37.950Z,8.90
2023-06-03T02:53:45.767Z,7.10
2023-06-03T02:58:54.045Z,8.70
2023-06-03T03:04:02.070Z,9.70
2023-06-03T03:09:09.720Z,5.40
2023-06-03T03:14:18.525Z,11.20
2023-06-03T03:19:26.339Z,10.70
2023-06-03T03:24:34.058Z,9.30
2023-06-03T03:29:45.751Z,9.40
2023-06-03T03:35:09.119Z,10.80
2023-06-03T03:40:22.198Z,9.30
2023-06-03T03:45:36.339Z,12.70
2023-06-03T03:50:46.238Z,10.30
2023-06-03T03:55:55.421Z,9.20
2023-06-03T04:01:10.658Z,9.20
2023-06-03T04:06:34.309Z,10.30
2023-06-03T04:11:44.183Z,9.20
2023-06-03T04:17:00.437Z,13.30
2023-06-03T04:22:11.171Z,7.10
2023-06-03T04:27:18.988Z,10.60
2023-06-03T04:32:27.052Z,10.80
2023-06-03T04:37:38.230Z,10.60
2023-06-03T04:42:45.812Z,11.10
2023-06-03T04:47:59.831Z,10.40
2023-06-03T04:53:07.960Z,7.90
2023-06-03T04:58:20.412Z,9.20
2023-06-03T05:03:28.760Z,7.70
2023-06-03T05:08:36.346Z,9.10
2023-06-03T05:13:44.487Z,8.70
2023-06-03T05:18:53.929Z,8.20
2023-06-03T05:24:01.542Z,7.10
2023-06-03T05:29:09.249Z,7.80
2023-06-03T05:34:16.999Z,8.10
2023-06-03T05:39:24.366Z,6.70
2023-06-03T05:44:31.565Z,6.90
2023-06-03T05:49:38.870Z,7.20
2023-06-03T05:54:49.622Z,7.20
2023-06-03T05:59:57.059Z,7.10
2023-06-03T06:05:05.476Z,7.20
2023-06-03T06:10:14.602Z,7.80
2023-06-03T06:15:21.948Z,6.90
2023-06-03T06:20:29.538Z,5.90
2023-06-03T06:25:36.802Z,5.70
2023-06-03T06:30:45.822Z,6.10
2023-06-03T06:35:53.230Z,5.70
2023-06-03T06:41:01.731Z,5.50
2023-06-03T06:46:10.102Z,5.50
2023-06-03T06:51:20.881Z,5.40
2023-06-03T06:56:29.144Z,5.00
2023-06-03T07:01:37.232Z,5.60
2023-06-03T07:06:44.973Z,6.40
2023-06-03T07:11:52.430Z,4.80
2023-06-03T07:17:00.225Z,5.60
2023-06-03T07:22:09.690Z,4.50
2023-06-03T07:27:29.562Z,5.20
2023-06-03T07:32:37.240Z,5.00
2023-06-03T07:37:45.522Z,5.10
2023-06-03T07:42:53.395Z,4.80
2023-06-03T07:48:03.010Z,5.50
2023-06-03T07:53:10.478Z,5.20
2023-06-03T07:58:19.229Z,5.00
2023-06-03T08:03:28.696Z,4.50
2023-06-03T08:08:37.817Z,4.80
2023-06-03T08:13:46.022Z,4.50
2023-06-03T08:18:56.547Z,4.30
2023-06-03T08:24:04.070Z,4.60
2023-06-03T08:29:11.698Z,3.70
2023-06-03T08:34:19.247Z,4.10
2023-06-03T08:39:26.646Z,4.90
2023-06-03T08:44:44.113Z,3.90
2023-06-03T08:50:02.186Z,3.20
2023-06-03T08:55:12.215Z,4.00
2023-06-03T09:00:30.761Z,3.40
2023-06-03T09:05:38.918Z,3.00
2023-06-03T09:10:50.144Z,2.70
2023-06-03T09:15:58.655Z,2.90
2023-06-03T09:21:07.252Z,2.40
2023-06-03T09:26:15.304Z,2.90
2023-06-03T09:31:23.469Z,2.60
2023-06-03T09:36:31.998Z,3.40
2023-06-03T09:41:40.566Z,2.90
2023-06-03T09:46:53.215Z,2.90
2023-06-03T09:52:00.918Z,2.50
2023-06-03T09:57:15.867Z,2.50
2023-06-03T10:02:25.265Z,2.30
2023-06-03T10:07:33.450Z,3.10
2023-06-03T10:12:41.323Z,2.90
2023-06-03T10:17:50.573Z,3.10
2023-06-03T10:23:08.695Z,3.00
2023-06-03T10:28:17.002Z,2.90
2023-06-03T10:33:24.671Z,2.40
2023-06-03T10:38:33.416Z,2.40
2023-06-03T10:43:41.957Z,2.10
2023-06-03T10:48:52.001Z,2.10
2023-06-03T10:54:19.451Z,2.30
2023-06-03T10:59:30.052Z,2.40
2023-06-03T11:04:39.330Z,2.80
2023-06-03T11:09:46.709Z,2.00
2023-06-03T11:14:58.743Z,2.20
2023-06-03T11:20:08.592Z,2.20
2023-06-03T11:25:33.787Z,2.60
2023-06-03T11:30:57.910Z,2.00
2023-06-03T11:36:43.944Z,2.20
2023-06-03T11:42:11.819Z,2.30
2023-06-03T11:47:19.355Z,2.00
2023-06-03T11:52:27.218Z,2.10
2023-06-03T11:57:35.790Z,2.10
2023-06-03T12:02:43.710Z,2.00
2023-06-03T12:08:00.973Z,2.20
2023-06-03T12:13:08.550Z,2.00
2023-06-03T12:18:16.164Z,2.10
2023-06-03T12:23:24.083Z,2.30
2023-06-03T12:28:33.229Z,2.30
2023-06-03T12:33:44.319Z,1.70
2023-06-03T12:38:59.460Z,2.20
2023-06-03T12:44:07.971Z,2.10
2023-06-03T12:49:22.136Z,2.70
2023-06-03T12:54:30.600Z,2.10
2023-06-03T12:59:55.897Z,2.00
2023-06-03T13:05:04.405Z,2.40
2023-06-03T13:10:14.918Z,2.50
2023-06-03T13:15:22.198Z,2.20
2023-06-03T13:20:30.296Z,2.10
2023-06-03T13:25:38.239Z,2.20
2023-06-03T13:30:45.955Z,2.10
2023-06-03T13:35:53.845Z,2.00
2023-06-03T13:41:01.750Z,2.00
2023-06-03T13:46:13.041Z,1.90
2023-06-03T13:51:20.307Z,2.00
2023-06-03T13:56:27.654Z,2.40
2023-06-03T14:01:35.134Z,2.50
2023-06-03T14:06:42.886Z,2.20
2023-06-03T14:11:51.554Z,2.00
2023-06-03T14:16:59.412Z,1.90
2023-06-03T14:22:08.057Z,2.00
2023-06-03T14:27:16.501Z,2.00
2023-06-03T14:32:24.787Z,1.90
2023-06-03T14:37:32.425Z,2.00
2023-06-03T14:42:39.953Z,1.80
2023-06-03T14:47:47.384Z,1.70
2023-06-03T14:52:54.840Z,2.40
2023-06-03T14:58:02.481Z,2.10
2023-06-03T15:03:10.047Z,2.00
2023-06-03T15:08:17.397Z,1.90
2023-06-03T15:13:25.003Z,2.80
2023-06-03T15:18:32.460Z,2.30
2023-06-03T15:23:40.405Z,2.20
2023-06-03T15:28:47.775Z,1.50
2023-06-03T15:33:54.963Z,2.10
2023-06-03T15:39:03.695Z,2.50
2023-06-03T15:44:11.244Z,2.00
2023-06-03T15:49:18.888Z,1.90
2023-06-03T15:54:26.460Z,2.10
2023-06-03T15:59:33.873Z,2.20
2023-06-03T16:04:43.016Z,1.80
2023-06-03T16:09:50.619Z,2.40
2023-06-03T16:14:58.070Z,1.60
2023-06-03T16:20:09.155Z,1.70
2023-06-03T16:25:17.956Z,2.40
2023-06-03T16:30:25.929Z,2.10
2023-06-03T16:35:33.926Z,2.10
2023-06-03T16:40:41.284Z,2.00
2023-06-03T16:45:48.876Z,2.20
2023-06-03T16:50:56.605Z,2.20
2023-06-03T16:56:03.934Z,1.90
2023-06-03T17:01:11.441Z,1.90
2023-06-03T17:06:18.884Z,2.60
2023-06-03T17:11:26.809Z,1.90
2023-06-03T17:16:34.952Z,2.00
2023-06-03T17:21:44.159Z,2.50
2023-06-03T17:26:51.933Z,2.20
2023-06-03T17:31:59.398Z,2.30
2023-06-03T17:37:07.932Z,2.20
2023-06-03T17:42:16.035Z,2.00
2023-06-03T17:47:24.119Z,2.10
2023-06-03T17:52:31.539Z,2.30
2023-06-03T17:57:47.042Z,2.40
2023-06-03T18:02:54.478Z,2.50
2023-06-03T18:08:02.257Z,2.40
2023-06-03T18:13:09.746Z,2.10
2023-06-03T18:18:17.179Z,2.00
2023-06-03T18:23:24.622Z,2.70
2023-06-03T18:28:32.506Z,3.10
2023-06-03T18:33:40.184Z,3.00
2023-06-03T18:38:48.341Z,2.70
2023-06-03T18:43:55.652Z,2.90
2023-06-03T18:49:03.551Z,2.70
2023-06-03T18:54:11.476Z,3.60
2023-06-03T18:59:19.257Z,2.90
2023-06-03T19:04:27.635Z,3.20
2023-06-03T19:09:35.293Z,3.50
2023-06-03T19:14:43.432Z,3.40
2023-06-03T19:19:50.823Z,2.70
2023-06-03T19:24:58.504Z,2.50
2023-06-03T19:30:08.655Z,2.50
2023-06-03T19:35:16.644Z,3.10
2023-06-03T19:40:24.148Z,2.80
2023-06-03T19:45:31.644Z,3.10
2023-06-03T19:50:40.344Z,3.20
2023-06-03T19:55:48.180Z,3.20
2023-06-03T20:00:56.209Z,3.70
2023-06-03T20:06:04.255Z,3.70
2023-06-03T20:11:12.056Z,3.10
2023-06-03T20:16:21.123Z,3.10
2023-06-03T20:21:28.984Z,3.10
2023-06-03T20:26:36.595Z,2.70
2023-06-03T20:31:44.625Z,2.90
2023-06-03T20:36:52.920Z,2.90
2023-06-03T20:42:00.207Z,3.10
2023-06-03T20:47:14.000Z,3.40
2023-06-03T20:52:21.609Z,3.30
2023-06-03T20:57:29.646Z,4.10
2023-06-03T21:02:37.568Z,3.30
2023-06-03T21:07:45.024Z,3.50
2023-06-03T21:12:53.381Z,4.30
2023-06-03T21:18:01.338Z,3.90
2023-06-03T21:23:09.496Z,3.80
2023-06-03T21:28:17.046Z,3.60
2023-06-03T21:33:26.692Z,4.10
2023-06-03T21:38:35.126Z,4.00
2023-06-03T21:43:44.368Z,4.10
2023-06-03T21:48:51.670Z,4.00
2023-06-03T21:53:59.182Z,4.00
2023-06-03T21:59:06.817Z,3.80
2023-06-03T22:04:16.870Z,4.20
2023-06-03T22:09:24.256Z,4.10
2023-06-03T22:14:34.781Z,3.80
2023-06-03T22:19:42.214Z,4.80
2023-06-03T22:24:49.553Z,4.20
2023-06-03T22:29:57.368Z,3.80
2023-06-03T22:35:05.105Z,4.10
2023-06-03T22:40:13.592Z,3.70
2023-06-03T22:45:21.262Z,4.00
2023-06-03T22:50:28.992Z,3.90
2023-06-03T22:55:36.376Z,3.70
2023-06-03T23:00:44.510Z,3.40
2023-06-03T23:05:52.276Z,3.50
2023-06-03T23:10:59.846Z,3.70
2023-06-03T23:16:08.031Z,3.80
2023-06-03T23:21:15.890Z,4.10
2023-06-03T23:26:23.680Z,4.30
2023-06-03T23:31:31.150Z,4.20
2023-06-03T23:36:38.827Z,3.60
2023-06-03T23:41:46.384Z,3.50
2023-06-03T23:46:54.125Z,3.80
2023-06-03T23:52:03.616Z,4.00
2023-06-03T23:57:11.664Z,4.00
